Time;durP1;ratioP1;P1;durP2;ratioP2;P2;SDS_P1;SDS_P2;PMS_P1;PMS_P2;Temp;Humidity;BMP_temperature;BMP_pressure;BME280_temperature;BME280_humidity;BME280_pressure;Samples;Min_cycle;Max_cycle;Signal;HPM_P1;HPM_P2
2022/06/20 00:02:16;;;;;;;;;;;;;;;;;;5101992;27;20005;-84
2022/06/20 00:04:41;;;;;;;;;;;;;;;;;;5102100;27;20330;-85
2022/06/20 00:07:07;;;;;;;;;;;;;;;;;;5101844;27;20353;-85
2022/06/20 00:09:32;;;;;;;;;;;;;;;;;;5101907;27;20378;-84
2022/06/20 00:11:57;;;;;;;;;;;;;;;;;;5101833;27;19904;-86
2022/06/20 00:14:23;;;;;;;;;;;;;;;;;;5101791;27;19918;-85
2022/06/20 00:16:48;;;;;;;;;;;;;;;;;;5101983;27;19904;-86
2022/06/20 00:19:13;;;;;;;;;;;;;;;;;;5101396;27;19912;-84
2022/06/20 00:21:38;;;;;;;;;;;;;;;;;;5101644;27;19953;-85
2022/06/20 00:24:04;;;;;;;;;;;;;;;;;;5101630;27;19908;-86
2022/06/20 00:26:29;;;;;;;;;;;;;;;;;;5101421;27;19903;-86
2022/06/20 00:28:54;;;;;;;;;;;;;;;;;;5117563;27;19915;-85
2022/06/20 00:31:20;;;;;;;;;;;;;;;;;;5101408;27;19903;-85
2022/06/20 00:33:45;;;;;;;;;;;;;;;;;;5101565;27;20412;-85
2022/06/20 00:36:10;;;;;;;;;;;;;;;;;;5101313;27;19909;-85
2022/06/20 00:38:36;;;;;;;;;;;;;;;;;;5101211;27;19908;-86
2022/06/20 00:41:01;;;;;;;;;;;;;;;;;;5101149;27;19903;-85
2022/06/20 00:43:26;;;;;;;;;;;;;;;;;;5101375;27;19908;-85
2022/06/20 00:45:52;;;;;;;;;;;;;;;;;;5118146;27;20011;-85
2022/06/20 00:48:17;;;;;;;;;;;;;;;;;;5100991;27;19915;-85
2022/06/20 00:50:42;;;;;;;;;;;;;;;;;;5117974;27;19903;-84
2022/06/20 00:53:08;;;;;;;;;;;;;;;;;;5101045;27;19915;-87
2022/06/20 00:55:33;;;;;;;;;;;;;;;;;;5101043;27;19907;-87
2022/06/20 00:57:58;;;;;;;;;;;;;;;;;;5101130;27;19962;-85
2022/06/20 01:00:23;;;;;;;;;;;;;;;;;;5100736;27;20346;-84
2022/06/20 01:02:49;;;;;;;;;;;;;;;;;;5101223;27;19911;-86
2022/06/20 01:05:14;;;;;;;;;;;;;;;;;;5118355;27;20261;-86
2022/06/20 01:07:39;;;;;;;;;;;;;;;;;;5100899;27;19907;-85
2022/06/20 01:10:05;;;;;;;;;;;;;;;;;;5117468;27;19911;-83
2022/06/20 01:12:30;;;;;;;;;;;;;;;;;;5100642;27;19907;-85
2022/06/20 01:14:55;;;;;;;;;;;;;;;;;;5100597;27;19903;-86
2022/06/20 01:17:20;;;;;;;;;;;;;;;;;;5117730;27;20364;-85
2022/06/20 01:19:46;;;;;;;;;;;;;;;;;;5100441;27;19903;-86
2022/06/20 01:22:11;;;;;;;;;;;;;;;;;;5100569;27;19915;-86
2022/06/20 01:24:36;;;;;;;;;;;;;;;;;;5100486;27;19903;-86
2022/06/20 01:27:02;;;;;;;;;;;;;;;;;;5100516;27;19907;-84
2022/06/20 01:29:27;;;;;;;;;;;;;;;;;;5100133;27;19911;-86
2022/06/20 01:31:52;;;;;;;;;;;;;;;;;;5100433;28;20377;-86
2022/06/20 01:34:17;;;;;;;;;;;;;;;;;;5100194;28;20354;-86
2022/06/20 01:39:27;;;;;;;;;;;;;;;;;;5117093;27;19907;-85
2022/06/20 01:44:36;;;;;;;;;;;;;;;;;;5117072;27;19915;-86
2022/06/20 01:47:01;;;;;;;;;;;;;;;;;;5100055;27;19903;-86
2022/06/20 01:49:27;;;;;;;;;;;;;;;;;;5099864;27;19984;-84
2022/06/20 01:51:52;;;;;;;;;;;;;;;;;;5099864;27;19903;-85
2022/06/20 01:54:17;;;;;;;;;;;;;;;;;;5099696;27;19907;-85
2022/06/20 01:56:43;;;;;;;;;;;;;;;;;;5099936;28;20000;-84
2022/06/20 01:59:08;;;;;;;;;;;;;;;;;;5099999;28;20370;-85
2022/06/20 02:01:34;;;;;;;;;;;;;;;;;;5099963;28;20322;-83
2022/06/20 02:04:00;;;;;;;;;;;;;;;;;;5100011;28;19950;-83
2022/06/20 02:06:25;;;;;;;;;;;;;;;;;;5099803;27;19907;-84
2022/06/20 02:08:50;;;;;;;;;;;;;;;;;;5099831;28;19919;-85
2022/06/20 02:11:16;;;;;;;;;;;;;;;;;;5099489;28;20287;-84
2022/06/20 02:13:41;;;;;;;;;;;;;;;;;;5099665;28;19908;-85
2022/06/20 02:16:06;;;;;;;;;;;;;;;;;;5099769;28;19903;-84
2022/06/20 02:18:31;;;;;;;;;;;;;;;;;;5116808;28;19908;-84
2022/06/20 02:20:57;;;;;;;;;;;;;;;;;;5099553;28;19910;-84
2022/06/20 02:23:23;;;;;;;;;;;;;;;;;;5099694;28;19907;-84
2022/06/20 02:25:48;;;;;;;;;;;;;;;;;;5099632;28;19926;-85
2022/06/20 02:28:13;;;;;;;;;;;;;;;;;;5099535;28;20351;-84
2022/06/20 02:30:39;;;;;;;;;;;;;;;;;;5099648;28;19935;-85
2022/06/20 02:33:04;;;;;;;;;;;;;;;;;;5086680;28;20007;-87
2022/06/20 02:35:29;;;;;;;;;;;;;;;;;;5075976;28;19933;-86
2022/06/20 02:37:54;;;;;;;;;;;;;;;;;;5076012;28;20382;-85
2022/06/20 02:40:20;;;;;;;;;;;;;;;;;;5076265;28;19990;-85
2022/06/20 02:42:45;;;;;;;;;;;;;;;;;;5076004;28;19915;-85
2022/06/20 02:45:11;;;;;;;;;;;;;;;;;;5075901;28;19911;-84
2022/06/20 02:47:37;;;;;;;;;;;;;;;;;;5076168;28;19953;-84
2022/06/20 02:50:03;;;;;;;;;;;;;;;;;;5076197;28;19916;-86
2022/06/20 02:52:29;;;;;;;;;;;;;;;;;;5078139;28;19915;-85
2022/06/20 02:54:54;;;;;;;;;;;;;;;;;;5079630;28;19998;-84
2022/06/20 02:57:19;;;;;;;;;;;;;;;;;;5096467;28;19958;-85
2022/06/20 02:59:44;;;;;;;;;;;;;;;;;;5079530;28;19996;-85
2022/06/20 03:02:10;;;;;;;;;;;;;;;;;;5079528;28;20045;-85
2022/06/20 03:04:35;;;;;;;;;;;;;;;;;;5078021;28;19939;-84
2022/06/20 03:07:01;;;;;;;;;;;;;;;;;;5076660;28;19934;-84
2022/06/20 03:09:27;;;;;;;;;;;;;;;;;;5078317;28;19963;-86
2022/06/20 03:11:52;;;;;;;;;;;;;;;;;;5071424;28;20021;-82
2022/06/20 03:14:18;;;;;;;;;;;;;;;;;;5077026;28;19947;-84
2022/06/20 03:16:43;;;;;;;;;;;;;;;;;;5075614;28;19912;-83
2022/06/20 03:19:11;;;;;;;;;;;;;;;;;;5077589;28;19919;-84
2022/06/20 03:21:36;;;;;;;;;;;;;;;;;;5075529;28;19908;-83
2022/06/20 03:24:02;;;;;;;;;;;;;;;;;;5077872;28;19956;-83
2022/06/20 03:26:27;;;;;;;;;;;;;;;;;;5074053;28;20278;-84
2022/06/20 03:28:52;;;;;;;;;;;;;;;;;;5077131;28;19916;-84
2022/06/20 03:31:18;;;;;;;;;;;;;;;;;;5055803;28;19909;-84
2022/06/20 03:33:43;;;;;;;;;;;;;;;;;;5055928;28;19925;-83
2022/06/20 03:36:08;;;;;;;;;;;;;;;;;;5067019;28;19912;-83
2022/06/20 03:38:34;;;;;;;;;;;;;;;;;;5065803;28;20516;-82
2022/06/20 03:40:59;;;;;;;;;;;;;;;;;;5064853;28;19933;-85
2022/06/20 03:43:24;;;;;;;;;;;;;;;;;;5067498;28;20334;-85
2022/06/20 03:45:50;;;;;;;;;;;;;;;;;;5066938;28;19919;-86
2022/06/20 03:48:17;;;;;;;;;;;;;;;;;;5070780;28;19908;-84
2022/06/20 03:51:42;;;;;;;6.65;4.10;;;;;;;;;;5064164;28;20153;-77
2022/06/20 03:54:10;;;;;;;4.33;4.00;;;;;;;;;;5064161;28;20041;-77
2022/06/20 03:56:40;;;;;;;4.80;4.50;;;;;;;;;;5061667;27;20263;-76
2022/06/20 03:59:06;;;;;;;4.82;3.90;;;;;;;;;;5060820;28;20032;-76
2022/06/20 04:02:52;;;;;;;4.07;3.67;;;;;;;;;;5150286;27;20584;-65
2022/06/20 04:08:04;;;;;;;5.70;4.50;;;;;;;;;;5012005;22;20066;-64
2022/06/20 04:13:28;;;;;;;5.13;4.05;;;;;;;;;;5024638;28;20033;-64
2022/06/20 04:15:58;;;;;;;4.78;4.38;;;;;;;;;;5024738;28;20391;-64
2022/06/20 04:18:31;;;;;;;5.43;3.85;;;;;;;;;;5006694;28;20026;-64
2022/06/20 04:21:02;;;;;;;4.88;4.30;;;;;;;;;;5025437;28;20092;-63
2022/06/20 04:23:28;;;;;;;4.22;3.88;;;;;;;;;;5010001;28;20029;-63
2022/06/20 04:25:53;;;;;;;4.07;3.75;;;;;;;;;;5025988;28;20434;-63
2022/06/20 04:28:26;;;;;;;6.57;3.72;;;;;;;;;;5024743;28;20038;-71
2022/06/20 04:30:55;;;;;;;4.95;4.22;;;;;;;;;;5024646;28;20029;-73
2022/06/20 04:33:28;;;;;;;6.47;4.30;;;;;;;;;;5006618;28;20049;-71
2022/06/20 04:35:59;;;;;;;4.65;4.32;;;;;;;;;;5022919;28;20037;-72
2022/06/20 04:38:30;;;;;;;3.85;3.65;;;;;;;;;;5022884;28;20044;-71
2022/06/20 04:41:10;;;;;;;4.82;4.03;;;;;;;;;;5023187;28;20156;-71
2022/06/20 04:43:58;;;;;;;4.60;4.20;;;;;;;;;;5023543;28;20383;-73
2022/06/20 04:46:32;;;;;;;4.20;3.90;;;;;;;;;;5023429;28;20026;-71
2022/06/20 04:48:59;;;;;;;6.07;3.60;;;;;;;;;;5005995;28;20550;-71
2022/06/20 04:51:33;;;;;;;5.70;3.40;;;;;;;;;;5024079;28;20121;-71
2022/06/20 04:53:59;;;;;;;4.88;3.45;;;;;;;;;;5024006;28;20064;-72
2022/06/20 04:56:27;;;;;;;4.07;3.70;;;;;;;;;;5023229;28;20467;-72
2022/06/20 04:59:03;;;;;;;3.53;3.33;;;;;;;;;;5023362;28;20030;-73
2022/06/20 05:01:32;;;;;;;3.55;3.25;;;;;;;;;;5006565;28;20034;-72
2022/06/20 05:04:03;;;;;;;3.83;3.38;;;;;;;;;;5026867;28;20075;-73
2022/06/20 05:06:29;;;;;;;3.35;3.15;;;;;;;;;;5008143;28;20699;-71
2022/06/20 05:09:15;;;;;;;2.97;2.78;;;;;;;;;;5027886;28;20468;-71
2022/06/20 05:11:43;;;;;;;3.13;2.92;;;;;;;;;;5025667;28;20113;-72
2022/06/20 05:14:21;;;;;;;4.57;2.80;;;;;;;;;;5014433;28;20037;-73
2022/06/20 05:16:48;;;;;;;3.78;2.97;;;;;;;;;;4996105;28;20029;-73
2022/06/20 05:19:35;;;;;;;3.17;2.85;;;;;;;;;;5013492;28;20478;-73
2022/06/20 05:22:03;;;;;;;4.30;2.78;;;;;;;;;;5014830;28;20092;-72
2022/06/20 05:24:31;;;;;;;5.85;3.40;;;;;;;;;;4995456;28;20021;-74
2022/06/20 05:26:59;;;;;;;6.63;3.28;;;;;;;;;;5013748;28;20041;-74
2022/06/20 05:29:27;;;;;;;5.70;3.42;;;;;;;;;;5015099;28;20045;-73
2022/06/20 05:31:54;;;;;;;4.95;3.28;;;;;;;;;;5015130;28;20034;-73
2022/06/20 05:34:36;;;;;;;3.15;2.92;;;;;;;;;;5016140;28;20049;-75
2022/06/20 05:37:05;;;;;;;3.88;2.90;;;;;;;;;;5016302;28;20042;-75
2022/06/20 05:39:45;;;;;;;4.18;3.38;;;;;;;;;;5016708;28;20072;-74
2022/06/20 05:42:13;;;;;;;3.30;3.00;;;;;;;;;;5016290;28;20038;-74
2022/06/20 05:44:38;;;;;;;3.83;2.80;;;;;;;;;;4998546;28;20072;-74
2022/06/20 05:47:05;;;;;;;4.32;2.38;;;;;;;;;;5015718;28;20479;-74
2022/06/20 05:49:54;;;;;;;2.97;2.78;;;;;;;;;;4998858;28;20105;-74
2022/06/20 05:52:21;;;;;;;2.70;2.50;;;;;;;;;;4971765;28;20042;-74
2022/06/20 05:55:03;;;;;;;3.42;3.00;;;;;;;;;;5015700;28;20025;-74
2022/06/20 05:57:30;;;;;;;2.80;2.60;;;;;;;;;;5015219;28;20105;-74
2022/06/20 06:00:02;;;;;;;7.15;4.32;;;;;;;;;;5015852;28;20014;-74
2022/06/20 06:02:44;;;;;;;5.57;3.63;;;;;;;;;;5014254;28;20045;-68
2022/06/20 06:05:21;;;;;;;4.65;3.45;;;;;;;;;;5015387;28;20030;-68
2022/06/20 06:08:02;;;;;;;3.38;3.08;;;;;;;;;;5015590;28;20503;-68
2022/06/20 06:10:37;;;;;;;4.70;3.05;;;;;;;;;;5015818;28;20034;-67
2022/06/20 06:13:06;;;;;;;2.90;2.65;;;;;;;;;;5015591;28;20037;-67
2022/06/20 06:16:46;;;;;;;2.88;2.60;;;;;;;;;;5015612;28;20025;-67
2022/06/20 06:18:29;;;;;;;4.38;2.55;;;;;;;;;;5015768;28;20484;-68
2022/06/20 06:20:55;;;;;;;2.55;2.35;;;;;;;;;;5015444;28;20391;-68
2022/06/20 06:23:20;;;;;;;2.53;2.33;;;;;;;;;;5015353;28;20029;-67
2022/06/20 06:25:46;;;;;;;3.38;2.25;;;;;;;;;;5014483;28;20018;-68
2022/06/20 06:28:11;;;;;;;3.75;2.30;;;;;;;;;;5015310;28;20073;-67
2022/06/20 06:30:41;;;;;;;3.77;2.17;;;;;;;;;;5015427;28;20060;-67
2022/06/20 06:33:20;;;;;;;2.97;2.50;;;;;;;;;;5015264;28;20297;-67
2022/06/20 06:35:50;;;;;;;4.70;2.67;;;;;;;;;;5015195;28;20428;-68
2022/06/20 06:38:28;;;;;;;2.47;2.38;;;;;;;;;;4997565;28;20021;-67
2022/06/20 06:40:54;;;;;;;4.47;2.38;;;;;;;;;;5015324;28;20173;-68
2022/06/20 06:43:22;;;;;;;4.00;3.25;;;;;;;;;;5015044;28;20049;-68
2022/06/20 06:45:50;;;;;;;5.28;2.67;;;;;;;;;;4997489;28;20038;-67
2022/06/20 06:48:15;;;;;;;4.30;2.67;;;;;;;;;;4997415;28;20097;-68
2022/06/20 06:50:46;;;;;;;3.15;2.38;;;;;;;;;;5014885;28;20449;-68
2022/06/20 06:53:41;;;;;;;7.07;2.75;;;;;;;;;;5014870;28;20108;-67
2022/06/20 06:56:15;;;;;;;2.40;2.20;;;;;;;;;;4980472;28;20129;-68
2022/06/20 06:58:46;;;;;;;4.88;2.60;;;;;;;;;;5014923;28;20033;-74
2022/06/20 07:01:18;;;;;;;3.70;2.55;;;;;;;;;;4997063;28;20060;-74
2022/06/20 07:04:06;;;;;;;3.78;2.85;;;;;;;;;;5014645;28;20021;-74
2022/06/20 07:06:35;;;;;;;4.43;2.47;;;;;;;;;;4977469;28;20045;-74
2022/06/20 07:09:10;;;;;;;3.30;2.70;;;;;;;;;;5014921;28;20402;-74
2022/06/20 07:11:40;;;;;;;4.00;2.45;;;;;;;;;;5014600;28;20037;-72
2022/06/20 07:14:09;;;;;;;6.03;2.78;;;;;;;;;;5014720;28;20038;-74
2022/06/20 07:16:41;;;;;;;4.65;2.80;;;;;;;;;;5014557;28;20037;-74
2022/06/20 07:19:07;;;;;;;5.32;2.95;;;;;;;;;;5014527;28;20484;-74
2022/06/20 07:21:33;;;;;;;5.35;2.95;;;;;;;;;;5014321;28;20460;-74
2022/06/20 07:24:04;;;;;;;3.35;2.83;;;;;;;;;;5014393;28;20038;-74
2022/06/20 07:26:39;;;;;;;4.68;2.67;;;;;;;;;;5014873;28;20034;-74
2022/06/20 07:29:07;;;;;;;5.30;2.75;;;;;;;;;;5014628;28;20059;-74
2022/06/20 07:31:38;;;;;;;6.85;3.08;;;;;;;;;;5014769;28;20018;-74
2022/06/20 07:34:10;;;;;;;5.70;3.10;;;;;;;;;;5014244;28;20042;-72
2022/06/20 07:36:42;;;;;;;4.70;2.85;;;;;;;;;;4996377;28;20552;-74
2022/06/20 07:39:20;;;;;;;6.25;3.13;;;;;;;;;;5014274;28;20026;-74
2022/06/20 07:41:55;;;;;;;4.28;3.00;;;;;;;;;;5013988;28;20038;-73
2022/06/20 07:44:31;;;;;;;4.00;2.60;;;;;;;;;;5014129;28;20475;-66
2022/06/20 07:47:08;;;;;;;4.88;2.95;;;;;;;;;;4996578;28;20101;-66
2022/06/20 07:49:41;;;;;;;7.38;3.33;;;;;;;;;;4996396;28;20038;-68
2022/06/20 07:52:19;;;;;;;6.38;3.35;;;;;;;;;;5014572;28;20030;-66
2022/06/20 07:54:45;;;;;;;5.63;3.20;;;;;;;;;;4996339;28;20471;-67
2022/06/20 07:57:14;;;;;;;5.95;3.08;;;;;;;;;;4996453;28;20481;-66
2022/06/20 08:00:12;;;;;;;5.28;2.75;;;;;;;;;;4996410;28;20066;-67
2022/06/20 08:02:46;;;;;;;3.28;3.08;;;;;;;;;;4970490;28;20148;-66
2022/06/20 08:05:15;;;;;;;5.88;3.10;;;;;;;;;;5014126;28;20064;-66
2022/06/20 08:07:44;;;;;;;3.35;2.88;;;;;;;;;;5013729;28;20077;-66
2022/06/20 08:10:28;;;;;;;5.23;3.20;;;;;;;;;;5013841;28;20069;-67
2022/06/20 08:12:54;;;;;;;6.30;3.15;;;;;;;;;;5014059;28;20026;-66
2022/06/20 08:15:25;;;;;;;3.42;2.53;;;;;;;;;;5013779;28;20030;-66
2022/06/20 08:17:52;;;;;;;2.78;2.28;;;;;;;;;;4996555;28;20059;-67
2022/06/20 08:20:17;;;;;;;4.25;2.97;;;;;;;;;;5014042;28;20145;-74
2022/06/20 08:22:43;;;;;;;5.03;2.67;;;;;;;;;;5013601;28;20547;-74
2022/06/20 08:25:11;;;;;;;6.38;2.30;;;;;;;;;;5013724;28;20382;-74
2022/06/20 08:27:56;;;;;;;3.22;2.85;;;;;;;;;;5013912;28;20104;-74
2022/06/20 08:30:32;;;;;;;4.32;2.72;;;;;;;;;;5013933;28;20030;-73
2022/06/20 08:33:10;;;;;;;5.43;2.53;;;;;;;;;;5013920;28;20118;-72
2022/06/20 08:35:55;;;;;;;3.10;2.53;;;;;;;;;;5013533;28;20030;-74
2022/06/20 08:38:24;;;;;;;6.15;2.95;;;;;;;;;;5013068;28;20434;-74
2022/06/20 08:40:49;;;;;;;3.47;2.65;;;;;;;;;;4995908;28;20026;-74
2022/06/20 08:43:24;;;;;;;2.90;2.70;;;;;;;;;;5013563;28;20026;-73
2022/06/20 08:46:08;;;;;;;2.72;2.42;;;;;;;;;;4995883;28;20426;-72
2022/06/20 08:48:43;;;;;;;3.78;2.33;;;;;;;;;;5015911;28;20022;-74
2022/06/20 08:51:11;;;;;;;2.58;2.38;;;;;;;;;;5017171;28;20033;-73
2022/06/20 08:53:55;;;;;;;2.42;2.22;;;;;;;;;;5017391;28;20109;-73
2022/06/20 08:56:30;;;;;;;3.53;2.05;;;;;;;;;;5017052;28;20021;-73
2022/06/20 08:59:10;;;;;;;2.80;2.08;;;;;;;;;;5017126;28;20042;-72
2022/06/20 09:01:42;;;;;;;2.60;2.40;;;;;;;;;;5017398;28;20057;-72
2022/06/20 09:04:07;;;;;;;2.97;2.45;;;;;;;;;;5017219;28;20029;-74
2022/06/20 09:06:52;;;;;;;5.00;2.50;;;;;;;;;;5016894;28;20161;-74
2022/06/20 09:09:26;;;;;;;2.90;2.30;;;;;;;;;;4999838;28;20026;-73
2022/06/20 09:12:01;;;;;;;3.00;1.90;;;;;;;;;;5016754;28;20034;-73
2022/06/20 09:14:27;;;;;;;4.43;2.30;;;;;;;;;;5016702;28;20030;-74
2022/06/20 09:16:58;;;;;;;6.85;2.38;;;;;;;;;;5016686;28;20025;-72
2022/06/20 09:19:42;;;;;;;3.53;2.30;;;;;;;;;;5016590;28;20038;-74
2022/06/20 09:22:17;;;;;;;2.38;2.22;;;;;;;;;;4998900;28;20038;-72
2022/06/20 09:25:05;;;;;;;3.28;2.40;;;;;;;;;;5016864;28;20058;-73
2022/06/20 09:27:31;;;;;;;3.92;2.40;;;;;;;;;;5005957;28;20033;-73
2022/06/20 09:29:59;;;;;;;2.35;2.20;;;;;;;;;;5016460;28;20033;-73
2022/06/20 09:32:43;;;;;;;4.78;2.35;;;;;;;;;;5016701;28;20034;-72
2022/06/20 09:35:15;;;;;;;5.57;2.33;;;;;;;;;;4998739;28;20507;-73
2022/06/20 09:37:43;;;;;;;2.35;2.05;;;;;;;;;;4999783;28;20049;-73
2022/06/20 09:40:14;;;;;;;7.18;2.60;;;;;;;;;;4998795;28;20476;-73
2022/06/20 09:43:03;;;;;;;2.97;2.17;;;;;;;;;;5016438;28;20034;-73
2022/06/20 09:45:43;;;;;;;3.15;2.70;;;;;;;;;;5016476;28;20103;-73
2022/06/20 09:48:16;;;;;;;5.05;2.13;;;;;;;;;;5016407;28;20116;-73
2022/06/20 09:50:50;;;;;;;3.65;2.15;;;;;;;;;;5016216;28;20097;-73
2022/06/20 09:53:21;;;;;;;4.47;2.30;;;;;;;;;;5016351;28;20030;-73
2022/06/20 09:55:47;;;;;;;3.08;2.28;;;;;;;;;;5015932;28;20101;-73
2022/06/20 09:58:18;;;;;;;2.15;1.95;;;;;;;;;;4998239;28;20117;-74
2022/06/20 10:01:00;;;;;;;2.40;2.20;;;;;;;;;;5016075;28;20156;-73
2022/06/20 10:03:30;;;;;;;3.53;2.03;;;;;;;;;;5015832;28;20446;-74
2022/06/20 10:06:21;;;;;;;3.85;2.08;;;;;;;;;;5015948;28;20022;-73
2022/06/20 10:08:46;;;;;;;3.58;2.35;;;;;;;;;;4998168;28;20379;-73
2022/06/20 10:11:18;;;;;;;3.03;2.25;;;;;;;;;;5015673;28;20142;-73
2022/06/20 10:13:52;;;;;;;4.95;2.40;;;;;;;;;;5015817;28;20108;-73
2022/06/20 10:16:21;;;;;;;6.68;2.58;;;;;;;;;;5015854;28;20035;-74
2022/06/20 10:18:55;;;;;;;4.13;2.55;;;;;;;;;;5015529;28;20028;-73
2022/06/20 10:21:23;;;;;;;4.50;2.28;;;;;;;;;;5015692;28;20038;-73
2022/06/20 10:24:07;;;;;;;3.45;2.00;;;;;;;;;;4997866;28;20468;-73
2022/06/20 10:26:36;;;;;;;5.50;2.28;;;;;;;;;;5015695;28;20436;-73
2022/06/20 10:29:22;;;;;;;8.15;2.92;;;;;;;;;;5015369;28;20099;-73
2022/06/20 10:32:10;;;;;;;6.82;2.80;;;;;;;;;;4997871;28;20041;-73
2022/06/20 10:34:41;;;;;;;4.10;2.25;;;;;;;;;;4997652;28;20034;-73
2022/06/20 10:37:10;;;;;;;3.75;2.83;;;;;;;;;;5015761;28;20069;-68
2022/06/20 10:39:54;;;;;;;3.47;2.80;;;;;;;;;;5015203;28;20033;-73
2022/06/20 10:42:30;;;;;;;6.25;3.30;;;;;;;;;;5015196;28;20506;-73
2022/06/20 10:45:25;;;;;;;4.47;3.08;;;;;;;;;;4998570;28;20029;-73
2022/06/20 10:48:10;;;;;;;4.18;2.13;;;;;;;;;;4998241;28;20041;-74
2022/06/20 10:50:44;;;;;;;3.60;2.15;;;;;;;;;;5015459;28;20018;-74
2022/06/20 10:53:28;;;;;;;2.80;1.88;;;;;;;;;;5015177;28;20041;-74
2022/06/20 10:56:27;;;;;;;3.75;2.22;;;;;;;;;;5022400;23;20025;-73
2022/06/20 10:59:14;;;;;;;5.38;2.28;;;;;;;;;;4992594;28;20527;-73
2022/06/20 11:01:42;;;;;;;3.38;2.50;;;;;;;;;;4995342;28;20030;-73
2022/06/20 11:04:20;;;;;;;5.78;2.35;;;;;;;;;;4995420;28;20065;-73
2022/06/20 11:07:04;;;;;;;4.53;2.38;;;;;;;;;;4995040;28;20105;-73
2022/06/20 11:09:38;;;;;;;6.15;2.10;;;;;;;;;;4995301;28;20033;-73
2022/06/20 11:12:09;;;;;;;3.80;2.10;;;;;;;;;;4977029;28;20045;-73
2022/06/20 11:14:46;;;;;;;3.17;1.75;;;;;;;;;;4977633;28;20045;-73
2022/06/20 11:17:35;;;;;;;4.68;2.03;;;;;;;;;;4995127;28;20464;-74
2022/06/20 11:20:19;;;;;;;4.90;2.13;;;;;;;;;;4995114;28;20483;-73
2022/06/20 11:23:00;;;;;;;5.10;2.00;;;;;;;;;;4994990;28;20468;-73
2022/06/20 11:25:34;;;;;;;5.00;2.08;;;;;;;;;;4995037;28;20037;-73
2022/06/20 11:27:59;;;;;;;3.97;2.47;;;;;;;;;;4994989;28;20022;-73
2022/06/20 11:30:24;;;;;;;3.50;1.80;;;;;;;;;;4993531;28;20483;-73
2022/06/20 11:32:58;;;;;;;5.25;1.83;;;;;;;;;;4994607;28;20113;-73
2022/06/20 11:35:47;;;;;;;1.85;1.70;;;;;;;;;;4994610;28;20042;-73
2022/06/20 11:38:13;;;;;;;1.95;1.85;;;;;;;;;;4991552;28;20034;-73
2022/06/20 11:40:38;;;;;;;3.47;2.10;;;;;;;;;;4995027;28;20030;-74
2022/06/20 11:43:04;;;;;;;3.47;2.15;;;;;;;;;;5007751;23;20089;-73
2022/06/20 11:45:36;;;;;;;2.95;2.05;;;;;;;;;;4994770;28;20052;-73
2022/06/20 11:48:01;;;;;;;2.42;1.98;;;;;;;;;;4993237;28;20023;-73
2022/06/20 11:50:30;;;;;;;2.53;1.92;;;;;;;;;;4994448;28;20526;-74
2022/06/20 11:52:58;;;;;;;4.78;2.22;;;;;;;;;;4994962;28;20026;-74
2022/06/20 11:55:24;;;;;;;2.28;2.08;;;;;;;;;;4994903;28;20073;-73
2022/06/20 11:58:04;;;;;;;3.88;1.83;;;;;;;;;;4994351;28;20388;-74
2022/06/20 12:00:40;;;;;;;4.65;2.53;;;;;;;;;;4976830;28;20440;-74
2022/06/20 12:03:20;;;;;;;4.40;2.30;;;;;;;;;;4994600;28;20027;-74
2022/06/20 12:05:59;;;;;;;5.03;2.30;;;;;;;;;;4994311;28;20050;-74
2022/06/20 12:08:37;;;;;;;5.03;2.22;;;;;;;;;;4992997;28;20050;-74
2022/06/20 12:11:08;;;;;;;3.95;2.40;;;;;;;;;;4994481;28;20049;-73
2022/06/20 12:13:34;;;;;;;3.85;2.78;;;;;;;;;;4994470;28;20093;-74
2022/06/20 12:16:02;;;;;;;3.70;2.50;;;;;;;;;;4994741;28;20030;-74
2022/06/20 12:18:39;;;;;;;2.95;2.47;;;;;;;;;;4994436;28;20410;-68
2022/06/20 12:24:08;;;;;;;6.53;2.15;;;;;;;;;;4954647;28;20073;-68
2022/06/20 12:26:39;;;;;;;3.00;1.85;;;;;;;;;;4998035;28;20053;-68
2022/06/20 12:29:14;;;;;;;2.70;1.70;;;;;;;;;;5023750;23;20065;-74
2022/06/20 12:31:41;;;;;;;3.95;1.80;;;;;;;;;;5003455;28;20044;-74
2022/06/20 12:34:25;;;;;;;1.95;1.80;;;;;;;;;;5037848;28;20017;-74
2022/06/20 12:37:00;;;;;;;1.90;1.75;;;;;;;;;;5037252;28;20041;-74
2022/06/20 12:39:31;;;;;;;5.60;2.03;;;;;;;;;;5037459;28;20034;-74
2022/06/20 12:42:01;;;;;;;2.20;2.00;;;;;;;;;;5037324;28;20092;-73
2022/06/20 12:44:42;;;;;;;2.33;1.67;;;;;;;;;;5037098;28;20025;-74
2022/06/20 12:47:10;;;;;;;3.25;1.63;;;;;;;;;;5037326;28;20057;-73
2022/06/20 12:49:42;;;;;;;2.80;2.08;;;;;;;;;;5019252;28;20060;-74
2022/06/20 12:52:18;;;;;;;2.20;1.88;;;;;;;;;;5019204;28;20486;-74
2022/06/20 12:54:49;;;;;;;3.33;1.95;;;;;;;;;;5032814;28;20388;-74
2022/06/20 12:57:33;;;;;;;4.63;2.55;;;;;;;;;;5034481;28;20029;-74
2022/06/20 13:00:02;;;;;;;3.00;2.33;;;;;;;;;;5033566;28;20029;-74
2022/06/20 13:02:48;;;;;;;2.53;2.38;;;;;;;;;;5033892;28;20017;-74
2022/06/20 13:05:29;;;;;;;2.78;2.25;;;;;;;;;;5016362;28;20053;-74
2022/06/20 13:08:07;;;;;;;5.00;2.60;;;;;;;;;;5016552;28;20033;-74
2022/06/20 13:10:35;;;;;;;5.47;3.10;;;;;;;;;;5036503;28;20478;-73
2022/06/20 13:13:23;;;;;;;5.93;2.28;;;;;;;;;;5036435;28;20060;-74
2022/06/20 13:15:56;;;;;;;2.08;1.90;;;;;;;;;;5035693;28;20463;-74
2022/06/20 13:18:25;;;;;;;3.20;2.58;;;;;;;;;;5032543;28;20578;-73
2022/06/20 13:21:01;;;;;;;4.65;2.15;;;;;;;;;;5032785;28;20025;-74
2022/06/20 13:23:27;;;;;;;3.15;2.05;;;;;;;;;;5034939;28;20035;-74
2022/06/20 13:25:59;;;;;;;2.58;2.10;;;;;;;;;;5035397;28;20410;-74
2022/06/20 13:28:43;;;;;;;2.55;2.03;;;;;;;;;;5035497;28;20029;-73
2022/06/20 13:31:15;;;;;;;3.55;2.08;;;;;;;;;;5035306;28;20037;-73
2022/06/20 13:33:59;;;;;;;4.05;1.98;;;;;;;;;;5017221;28;20037;-73
2022/06/20 13:36:43;;;;;;;2.78;2.00;;;;;;;;;;5035363;28;20030;-73
2022/06/20 13:39:27;;;;;;;4.28;1.83;;;;;;;;;;5035180;28;20029;-74
2022/06/20 13:41:55;;;;;;;6.13;2.22;;;;;;;;;;5034799;28;20040;-73
2022/06/20 13:44:30;;;;;;;2.53;1.88;;;;;;;;;;5032029;28;20029;-73
2022/06/20 13:46:56;;;;;;;3.30;2.13;;;;;;;;;;5035356;28;20026;-73
2022/06/20 13:49:25;;;;;;;4.38;2.00;;;;;;;;;;5001050;28;20467;-73
2022/06/20 13:52:08;;;;;;;4.25;1.88;;;;;;;;;;5035186;28;20033;-74
2022/06/20 13:54:39;;;;;;;4.75;1.92;;;;;;;;;;5034998;28;20107;-73
2022/06/20 13:57:08;;;;;;;3.15;2.00;;;;;;;;;;5017346;28;20030;-73
2022/06/20 13:59:40;;;;;;;2.20;1.83;;;;;;;;;;5013891;28;20485;-74
2022/06/20 14:02:24;;;;;;;2.05;1.88;;;;;;;;;;5030882;28;20475;-75
2022/06/20 14:04:51;;;;;;;2.53;1.95;;;;;;;;;;5016120;28;20108;-73
2022/06/20 14:07:24;;;;;;;2.83;1.65;;;;;;;;;;5034114;28;20106;-74
2022/06/20 14:09:57;;;;;;;3.10;1.88;;;;;;;;;;5032082;28;20069;-74
2022/06/20 14:12:22;;;;;;;2.22;1.95;;;;;;;;;;5034271;28;20069;-74
2022/06/20 14:14:52;;;;;;;2.67;1.88;;;;;;;;;;5034760;28;20053;-73
2022/06/20 14:17:19;;;;;;;1.80;1.65;;;;;;;;;;5034610;28;20044;-77
2022/06/20 14:20:11;;;;;;;2.65;2.22;;;;;;;;;;5016806;28;20021;-74
2022/06/20 14:22:39;;;;;;;4.70;2.50;;;;;;;;;;5012909;28;20479;-74
2022/06/20 14:25:23;;;;;;;3.63;2.20;;;;;;;;;;5034745;28;20101;-74
2022/06/20 14:27:51;;;;;;;4.30;2.28;;;;;;;;;;5016763;28;20037;-74
2022/06/20 14:30:17;;;;;;;5.18;2.05;;;;;;;;;;5034140;28;20041;-74
2022/06/20 14:32:49;;;;;;;2.92;2.47;;;;;;;;;;5016678;28;20072;-74
2022/06/20 14:35:21;;;;;;;4.00;3.00;;;;;;;;;;5034181;28;20025;-74
2022/06/20 14:37:56;;;;;;;4.88;2.85;;;;;;;;;;5009417;28;20163;-74
2022/06/20 14:40:31;;;;;;;7.57;2.67;;;;;;;;;;5031981;28;20099;-74
2022/06/20 14:43:14;;;;;;;4.60;2.70;;;;;;;;;;5031030;28;20395;-74
2022/06/20 14:45:49;;;;;;;4.22;2.72;;;;;;;;;;5012810;28;20025;-74
2022/06/20 14:48:21;;;;;;;7.07;2.80;;;;;;;;;;5031025;28;20462;-74
2022/06/20 14:50:47;;;;;;;4.53;2.85;;;;;;;;;;5030998;28;20522;-74
2022/06/20 14:53:16;;;;;;;3.45;2.47;;;;;;;;;;5031241;28;20025;-74
2022/06/20 14:55:54;;;;;;;7.30;3.40;;;;;;;;;;5013290;28;20499;-74
2022/06/20 14:58:38;;;;;;;7.35;2.65;;;;;;;;;;5030787;28;20038;-74
2022/06/20 15:01:18;;;;;;;5.28;2.88;;;;;;;;;;5012995;28;20387;-73
2022/06/20 15:03:51;;;;;;;5.55;3.20;;;;;;;;;;5030897;28;20079;-73
2022/06/20 15:06:39;;;;;;;9.05;3.20;;;;;;;;;;5030972;28;20033;-73
2022/06/20 15:09:24;;;;;;;10.07;4.32;;;;;;;;;;5019889;28;20072;-73
2022/06/20 15:12:15;;;;;;;9.55;4.28;;;;;;;;;;5030629;28;20040;-74
2022/06/20 15:14:41;;;;;;;8.02;3.80;;;;;;;;;;4999792;28;20088;-73
2022/06/20 15:17:06;;;;;;;9.93;3.53;;;;;;;;;;5030054;28;20417;-74
2022/06/20 15:19:34;;;;;;;11.90;3.50;;;;;;;;;;5030041;28;20041;-74
2022/06/20 15:22:05;;;;;;;5.78;3.33;;;;;;;;;;5030373;28;20025;-74
2022/06/20 15:24:42;;;;;;;7.20;3.78;;;;;;;;;;5029842;28;20095;-67
2022/06/20 15:27:13;;;;;;;5.50;3.55;;;;;;;;;;5012492;28;20065;-67
2022/06/20 15:30:05;;;;;;;8.07;4.53;;;;;;;;;;5029845;28;20026;-68
2022/06/20 15:32:34;;;;;;;6.07;4.30;;;;;;;;;;5026280;28;20042;-68
2022/06/20 15:35:14;;;;;;;9.80;4.03;;;;;;;;;;5030117;28;20025;-67
2022/06/20 15:37:40;;;;;;;8.63;3.95;;;;;;;;;;5030238;28;20025;-67
2022/06/20 15:40:16;;;;;;;10.73;4.10;;;;;;;;;;5012383;28;20109;-68
2022/06/20 15:42:46;;;;;;;9.13;4.35;;;;;;;;;;5030263;28;20114;-68
2022/06/20 15:45:19;;;;;;;6.47;4.07;;;;;;;;;;5030111;28;20068;-67
2022/06/20 15:47:49;;;;;;;8.93;5.00;;;;;;;;;;5029851;28;20037;-68
2022/06/20 15:50:21;;;;;;;7.68;4.63;;;;;;;;;;5029765;28;20074;-67
2022/06/20 15:53:08;;;;;;;9.55;4.93;;;;;;;;;;5029608;28;20037;-67
2022/06/20 15:55:33;;;;;;;5.82;4.20;;;;;;;;;;5029621;28;20029;-67